createdAt,value
2023-04-16T00:02:09.955Z,14.27
2023-04-16T00:04:36.715Z,14.43
2023-04-16T00:07:03.443Z,13.30
2023-04-16T00:09:30.282Z,12.80
2023-04-16T00:11:56.989Z,12.82
2023-04-16T00:14:23.588Z,13.10
2023-04-16T00:16:50.502Z,13.35
2023-04-16T00:19:17.183Z,13.30
2023-04-16T00:21:44.562Z,11.63
2023-04-16T00:24:11.325Z,13.50
2023-04-16T00:26:38.016Z,13.80
2023-04-16T00:29:04.685Z,14.07
2023-04-16T00:31:33.207Z,13.27
2023-04-16T00:34:00.321Z,14.55
2023-04-16T00:36:27.941Z,13.93
2023-04-16T00:38:56.045Z,14.15
2023-04-16T00:41:23.344Z,12.98
2023-04-16T00:43:51.362Z,14.32
2023-04-16T00:46:20.408Z,15.32
2023-04-16T00:48:47.238Z,15.25
2023-04-16T00:51:13.841Z,15.38
2023-04-16T00:53:40.711Z,14.55
2023-04-16T00:56:07.599Z,15.18
2023-04-16T00:58:35.072Z,14.50
2023-04-16T01:01:01.943Z,15.32
2023-04-16T01:03:55.074Z,15.23
2023-04-16T01:06:23.972Z,15.13
2023-04-16T01:08:50.712Z,14.98
2023-04-16T01:11:17.577Z,14.75
2023-04-16T01:13:45.131Z,15.93
2023-04-16T01:16:12.747Z,14.82
2023-04-16T01:18:39.437Z,13.98
2023-04-16T01:21:06.587Z,15.13
2023-04-16T01:23:33.655Z,15.10
2023-04-16T01:26:00.471Z,14.27
2023-04-16T01:28:27.244Z,15.43
2023-04-16T01:30:53.912Z,13.80
2023-04-16T01:33:43.385Z,13.80
2023-04-16T01:36:11.754Z,15.23
2023-04-16T01:38:38.418Z,15.05
2023-04-16T01:41:04.995Z,13.93
2023-04-16T01:43:31.646Z,13.93
2023-04-16T01:46:13.069Z,13.65
2023-04-16T01:48:39.717Z,14.27
2023-04-16T01:51:06.459Z,13.77
2023-04-16T01:53:34.344Z,13.02
2023-04-16T01:56:02.545Z,14.30
2023-04-16T01:58:29.784Z,13.73
2023-04-16T02:00:56.789Z,15.45
2023-04-16T02:03:24.966Z,15.15
2023-04-16T02:05:53.101Z,15.82
2023-04-16T02:08:19.770Z,15.35
2023-04-16T02:10:47.514Z,15.38
2023-04-16T02:13:15.134Z,14.68
2023-04-16T02:15:47.669Z,15.57
2023-04-16T02:18:16.336Z,15.38
2023-04-16T02:20:47.319Z,14.70
2023-04-16T02:23:17.564Z,15.30
2023-04-16T02:25:48.119Z,15.05
2023-04-16T02:28:16.796Z,16.55
2023-04-16T02:30:45.199Z,16.52
2023-04-16T02:33:13.514Z,16.27
2023-04-16T02:35:49.564Z,17.38
2023-04-16T02:38:16.350Z,17.27
2023-04-16T02:40:43.899Z,17.13
2023-04-16T02:43:11.009Z,17.17
2023-04-16T02:45:37.760Z,17.02
2023-04-16T02:48:04.633Z,17.75
2023-04-16T02:50:31.333Z,17.40
2023-04-16T02:52:58.040Z,16.52
2023-04-16T02:55:24.967Z,17.90
2023-04-16T02:57:52.939Z,17.80
2023-04-16T03:00:19.728Z,16.02
2023-04-16T03:02:46.574Z,16.85
2023-04-16T03:05:13.362Z,16.83
2023-04-16T03:07:40.708Z,18.38
2023-04-16T03:10:07.827Z,18.48
2023-04-16T03:12:35.020Z,19.75
2023-04-16T03:15:02.114Z,18.42
2023-04-16T03:17:29.932Z,16.25
2023-04-16T03:19:56.682Z,17.27
2023-04-16T03:22:23.561Z,17.70
2023-04-16T03:24:50.204Z,15.30
2023-04-16T03:27:16.842Z,17.70
2023-04-16T03:29:45.254Z,17.25
2023-04-16T03:32:12.715Z,16.88
2023-04-16T03:34:39.491Z,16.67
2023-04-16T03:37:06.637Z,17.98
2023-04-16T03:39:34.544Z,17.50
2023-04-16T03:42:02.238Z,17.15
2023-04-16T03:44:29.610Z,18.73
2023-04-16T03:46:56.322Z,19.05
2023-04-16T03:49:23.247Z,18.10
2023-04-16T03:51:49.927Z,19.55
2023-04-16T03:54:16.605Z,19.23
2023-04-16T03:56:49.973Z,19.33
2023-04-16T03:59:17.134Z,19.70
2023-04-16T04:01:44.481Z,19.35
2023-04-16T04:04:11.675Z,19.15
2023-04-16T04:06:38.424Z,18.83
2023-04-16T04:09:05.341Z,19.73
2023-04-16T04:11:32.987Z,20.13
2023-04-16T04:13:59.784Z,19.40
2023-04-16T04:16:26.486Z,21.02
2023-04-16T04:18:53.270Z,21.13
2023-04-16T04:21:21.811Z,20.80
2023-04-16T04:23:48.398Z,21.13
2023-04-16T04:26:15.061Z,20.67
2023-04-16T04:28:41.761Z,19.70
2023-04-16T04:31:08.435Z,22.88
2023-04-16T04:33:35.049Z,21.70
2023-04-16T04:36:02.141Z,20.95
2023-04-16T04:38:30.434Z,20.85
2023-04-16T04:40:57.896Z,22.20
2023-04-16T04:43:26.637Z,21.05
2023-04-16T04:45:53.343Z,21.08
2023-04-16T04:48:21.618Z,22.60
2023-04-16T04:50:48.290Z,21.27
2023-04-16T04:53:15.144Z,22.30
2023-04-16T04:55:42.771Z,21.25
2023-04-16T04:58:09.450Z,21.70
2023-04-16T05:00:37.149Z,21.15
2023-04-16T05:03:06.796Z,22.75
2023-04-16T05:05:33.553Z,21.60
2023-04-16T05:08:03.441Z,21.98
2023-04-16T05:10:30.072Z,20.85
2023-04-16T05:12:57.137Z,21.63
2023-04-16T05:15:23.801Z,22.60
2023-04-16T05:17:50.469Z,22.83
2023-04-16T05:20:17.238Z,22.80
2023-04-16T05:22:43.838Z,22.98
2023-04-16T05:25:10.672Z,21.55
2023-04-16T05:27:37.422Z,21.70
2023-04-16T05:30:04.546Z,21.77
2023-04-16T05:32:31.240Z,21.38
2023-04-16T05:34:57.859Z,22.10
2023-04-16T05:37:24.507Z,20.40
2023-04-16T05:39:51.196Z,20.17
2023-04-16T05:42:17.923Z,22.60
2023-04-16T05:44:44.527Z,21.33
2023-04-16T05:47:11.272Z,21.80
2023-04-16T05:49:37.919Z,22.67
2023-04-16T05:52:05.247Z,21.98
2023-04-16T05:54:31.862Z,22.27
2023-04-16T05:57:01.066Z,21.67
2023-04-16T05:59:29.212Z,20.30
2023-04-16T06:01:55.905Z,22.42
2023-04-16T06:04:22.575Z,21.63
2023-04-16T06:06:49.300Z,19.70
2023-04-16T06:09:16.128Z,22.23
2023-04-16T06:11:42.791Z,17.60
2023-04-16T06:14:09.399Z,21.38
2023-04-16T06:16:36.058Z,20.63
2023-04-16T06:19:02.824Z,20.88
2023-04-16T06:21:29.528Z,20.90
2023-04-16T06:23:56.239Z,20.92
2023-04-16T06:26:22.954Z,21.67
2023-04-16T06:28:50.203Z,21.10
2023-04-16T06:31:16.948Z,20.30
2023-04-16T06:33:43.587Z,21.98
2023-04-16T06:36:11.488Z,21.45
2023-04-16T06:38:38.358Z,21.13
2023-04-16T06:41:05.138Z,20.70
2023-04-16T06:43:33.470Z,21.98
2023-04-16T06:46:00.178Z,22.63
2023-04-16T06:48:27.393Z,23.73
2023-04-16T06:50:54.957Z,21.70
2023-04-16T06:53:21.673Z,20.92
2023-04-16T06:55:48.321Z,20.40
2023-04-16T06:58:15.023Z,21.33
2023-04-16T07:00:41.709Z,21.90
2023-04-16T07:03:08.543Z,21.00
2023-04-16T07:05:35.546Z,24.20
2023-04-16T07:08:02.179Z,23.10
2023-04-16T07:10:28.892Z,21.60
2023-04-16T07:12:55.635Z,22.95
2023-04-16T07:15:22.188Z,21.45
2023-04-16T07:17:48.787Z,21.58
2023-04-16T07:20:15.944Z,22.58
2023-04-16T07:22:43.399Z,22.25
2023-04-16T07:25:10.368Z,22.52
2023-04-16T07:27:36.989Z,21.75
2023-04-16T07:30:03.953Z,22.20
2023-04-16T07:32:30.944Z,22.75
2023-04-16T07:34:57.969Z,21.83
2023-04-16T07:37:24.577Z,20.67
2023-04-16T07:39:52.014Z,20.40
2023-04-16T07:42:18.714Z,18.75
2023-04-16T07:44:45.311Z,22.38
2023-04-16T07:47:11.973Z,20.00
2023-04-16T07:49:38.646Z,20.67
2023-04-16T07:52:05.912Z,19.85
2023-04-16T07:54:32.526Z,18.42
2023-04-16T07:56:59.185Z,20.23
2023-04-16T07:59:26.209Z,19.23
2023-04-16T08:01:53.998Z,20.98
2023-04-16T08:04:25.467Z,19.42
2023-04-16T08:06:52.905Z,20.98
2023-04-16T08:09:20.881Z,19.73
2023-04-16T08:11:49.273Z,21.58
2023-04-16T08:14:19.048Z,21.58
2023-04-16T08:16:45.697Z,21.13
2023-04-16T08:19:12.606Z,20.73
2023-04-16T08:21:39.550Z,21.42
2023-04-16T08:24:06.420Z,19.65
2023-04-16T08:26:32.992Z,20.15
2023-04-16T08:28:59.646Z,19.83
2023-04-16T08:31:26.254Z,21.33
2023-04-16T08:33:52.962Z,21.85
2023-04-16T08:36:19.788Z,21.83
2023-04-16T08:38:46.620Z,21.73
2023-04-16T08:41:14.021Z,21.52
2023-04-16T08:43:46.867Z,20.70
2023-04-16T08:46:13.519Z,21.55
2023-04-16T08:48:42.280Z,21.73
2023-04-16T08:51:10.654Z,20.42
2023-04-16T08:53:52.601Z,20.50
2023-04-16T08:56:23.564Z,20.15
2023-04-16T08:58:50.998Z,19.83
2023-04-16T09:01:19.150Z,19.23
2023-04-16T09:03:49.209Z,19.55
2023-04-16T09:06:16.967Z,19.98
2023-04-16T09:08:47.216Z,19.65
2023-04-16T09:11:13.940Z,19.02
2023-04-16T09:13:40.847Z,19.10
2023-04-16T09:16:09.266Z,20.02
2023-04-16T09:18:35.884Z,18.13
2023-04-16T09:21:03.074Z,19.08
2023-04-16T09:23:29.800Z,19.63
2023-04-16T09:25:59.140Z,19.73
2023-04-16T09:28:46.419Z,19.15
2023-04-16T09:31:14.213Z,18.67
2023-04-16T09:33:41.454Z,18.85
2023-04-16T09:36:08.141Z,18.40
2023-04-16T09:38:52.036Z,19.42
2023-04-16T09:41:19.482Z,19.38
2023-04-16T09:43:56.972Z,19.92
2023-04-16T09:46:25.131Z,19.08
2023-04-16T09:48:51.993Z,18.77
2023-04-16T09:51:18.635Z,17.88
2023-04-16T09:53:45.707Z,18.48
2023-04-16T09:56:12.903Z,20.02
2023-04-16T09:58:39.822Z,18.02
2023-04-16T10:01:11.129Z,18.17
2023-04-16T10:03:40.142Z,18.75
2023-04-16T10:06:07.896Z,17.13
2023-04-16T10:08:34.522Z,18.75
2023-04-16T10:11:01.326Z,17.67
2023-04-16T10:13:28.076Z,18.08
2023-04-16T10:15:57.145Z,17.92
2023-04-16T10:18:23.974Z,17.70
2023-04-16T10:20:50.960Z,18.73
2023-04-16T10:23:20.948Z,18.98
2023-04-16T10:25:49.295Z,17.77
2023-04-16T10:28:16.727Z,17.42
2023-04-16T10:30:52.901Z,16.98
2023-04-16T10:33:25.015Z,16.70
2023-04-16T10:36:04.905Z,17.35
2023-04-16T10:38:33.663Z,17.35
2023-04-16T10:41:02.180Z,15.75
2023-04-16T10:43:30.649Z,16.85
2023-04-16T10:45:57.530Z,17.02
2023-04-16T10:48:28.976Z,16.27
2023-04-16T10:50:58.211Z,15.73
2023-04-16T10:53:26.954Z,16.33
2023-04-16T10:56:02.734Z,17.00
2023-04-16T10:58:30.676Z,15.88
2023-04-16T11:01:01.393Z,15.52
2023-04-16T11:03:32.195Z,15.93
2023-04-16T11:06:17.604Z,16.73
2023-04-16T11:08:54.136Z,16.17
2023-04-16T11:11:22.571Z,15.70
2023-04-16T11:13:49.425Z,14.48
2023-04-16T11:16:16.836Z,13.57
2023-04-16T11:18:51.433Z,14.98
2023-04-16T11:21:18.848Z,15.57
2023-04-16T11:23:50.805Z,14.93
2023-04-16T11:26:25.405Z,14.13
2023-04-16T11:28:53.368Z,14.75
2023-04-16T11:31:20.343Z,14.63
2023-04-16T11:33:47.073Z,14.88
2023-04-16T11:36:13.952Z,12.63
2023-04-16T11:38:43.362Z,13.27
2023-04-16T11:41:11.055Z,11.77
2023-04-16T11:43:37.814Z,13.00
2023-04-16T11:46:20.480Z,12.85
2023-04-16T11:48:55.447Z,13.18
2023-04-16T11:51:23.280Z,12.45
2023-04-16T11:53:53.934Z,13.50
2023-04-16T11:56:32.285Z,12.98
2023-04-16T11:59:15.308Z,11.35
2023-04-16T12:01:45.530Z,11.15
2023-04-16T12:04:14.242Z,10.30
2023-04-16T12:06:41.303Z,10.35
2023-04-16T12:09:25.169Z,9.57
2023-04-16T12:11:52.006Z,9.80
2023-04-16T12:14:19.099Z,10.00
2023-04-16T12:16:45.839Z,9.65
2023-04-16T12:19:13.225Z,9.23
2023-04-16T12:21:45.921Z,10.23
2023-04-16T12:24:14.796Z,10.20
2023-04-16T12:26:48.863Z,10.68
2023-04-16T12:29:19.911Z,10.13
2023-04-16T12:31:47.159Z,11.30
2023-04-16T12:34:15.202Z,11.93
2023-04-16T12:36:42.699Z,12.35
2023-04-16T12:39:10.926Z,11.40
2023-04-16T12:41:39.341Z,11.77
2023-04-16T12:44:11.986Z,12.65
2023-04-16T12:46:39.961Z,13.02
2023-04-16T12:49:07.603Z,13.05
2023-04-16T12:51:35.108Z,11.80
2023-04-16T12:54:02.840Z,13.10
2023-04-16T12:56:30.651Z,12.38
2023-04-16T12:58:57.864Z,12.30
2023-04-16T13:01:24.814Z,12.60
2023-04-16T13:03:51.696Z,11.25
2023-04-16T13:06:18.623Z,11.73
2023-04-16T13:08:45.672Z,11.95
2023-04-16T13:11:12.778Z,11.82
2023-04-16T13:13:39.650Z,13.20
2023-04-16T13:16:08.474Z,11.82
2023-04-16T13:18:36.953Z,11.98
2023-04-16T13:21:04.520Z,12.07
2023-04-16T13:23:31.509Z,11.57
2023-04-16T13:25:58.268Z,11.43
2023-04-16T13:28:25.033Z,11.07
2023-04-16T13:30:52.223Z,10.38
2023-04-16T13:33:19.475Z,9.90
2023-04-16T13:35:46.404Z,10.15
2023-04-16T13:38:13.033Z,10.00
2023-04-16T13:40:39.733Z,9.88
2023-04-16T13:43:07.870Z,10.15
2023-04-16T13:45:34.748Z,10.60
2023-04-16T13:48:02.202Z,9.77
2023-04-16T13:50:28.931Z,11.02
2023-04-16T13:52:56.384Z,10.07
2023-04-16T13:55:23.154Z,10.23
2023-04-16T13:57:50.396Z,9.70
2023-04-16T14:00:17.392Z,10.38
2023-04-16T14:02:46.009Z,10.00
2023-04-16T14:05:12.818Z,11.15
2023-04-16T14:07:39.453Z,11.25
2023-04-16T14:10:06.790Z,10.98
2023-04-16T14:12:33.578Z,11.02
2023-04-16T14:15:00.351Z,11.38
2023-04-16T14:17:27.102Z,11.10
2023-04-16T14:19:53.894Z,11.00
2023-04-16T14:22:20.464Z,12.18
2023-04-16T14:24:47.137Z,11.35
2023-04-16T14:27:13.814Z,11.57
2023-04-16T14:29:41.339Z,10.55
2023-04-16T14:32:08.089Z,10.88
2023-04-16T14:34:34.811Z,10.93
2023-04-16T14:37:01.470Z,11.85
2023-04-16T14:39:28.112Z,11.85
2023-04-16T14:41:54.908Z,12.50
2023-04-16T14:44:22.637Z,11.93
2023-04-16T14:46:49.299Z,11.50
2023-04-16T14:49:16.352Z,10.57
2023-04-16T14:51:45.297Z,11.75
2023-04-16T14:54:12.055Z,12.10
2023-04-16T14:56:38.695Z,12.05
2023-04-16T14:59:05.414Z,10.57
2023-04-16T15:01:33.246Z,10.93
2023-04-16T15:04:02.095Z,11.65
2023-04-16T15:06:28.985Z,11.15
2023-04-16T15:08:55.882Z,11.55
2023-04-16T15:11:22.472Z,12.10
2023-04-16T15:13:49.174Z,11.25
2023-04-16T15:16:15.965Z,11.18
2023-04-16T15:18:42.574Z,10.63
2023-04-16T15:21:10.586Z,9.82
2023-04-16T15:23:39.275Z,10.88
2023-04-16T15:26:06.011Z,10.57
2023-04-16T15:28:32.678Z,10.80
2023-04-16T15:30:59.297Z,10.35
2023-04-16T15:33:26.469Z,10.23
2023-04-16T15:35:53.305Z,10.65
2023-04-16T15:38:21.364Z,9.75
2023-04-16T15:40:51.447Z,10.15
2023-04-16T15:43:18.250Z,9.82
2023-04-16T15:45:44.856Z,10.10
2023-04-16T15:48:11.607Z,9.73
2023-04-16T15:50:40.908Z,9.80
2023-04-16T15:53:07.978Z,10.20
2023-04-16T15:55:35.774Z,10.07
2023-04-16T15:58:03.229Z,10.60
2023-04-16T16:00:30.013Z,10.57
2023-04-16T16:02:57.020Z,10.20
2023-04-16T16:05:23.919Z,10.25
2023-04-16T16:07:51.175Z,10.38
2023-04-16T16:10:17.848Z,10.80
2023-04-16T16:12:44.757Z,10.02
2023-04-16T16:15:11.515Z,9.82
2023-04-16T16:17:38.803Z,10.27
2023-04-16T16:20:09.372Z,10.45
2023-04-16T16:22:37.562Z,10.50
2023-04-16T16:25:05.474Z,9.55
2023-04-16T16:27:32.088Z,10.38
2023-04-16T16:30:00.745Z,10.65
2023-04-16T16:32:28.153Z,9.95
2023-04-16T16:34:54.808Z,9.55
2023-04-16T16:37:21.455Z,10.02
2023-04-16T16:39:48.177Z,10.23
2023-04-16T16:42:18.635Z,9.05
2023-04-16T16:44:47.415Z,9.23
2023-04-16T16:47:14.003Z,9.20
2023-04-16T16:49:40.807Z,9.90
2023-04-16T16:52:07.494Z,9.68
2023-04-16T16:54:34.195Z,9.52
2023-04-16T16:57:02.407Z,9.70
2023-04-16T16:59:29.694Z,9.55
2023-04-16T17:01:56.449Z,8.75
2023-04-16T17:04:23.286Z,9.75
2023-04-16T17:06:50.078Z,9.93
2023-04-16T17:09:17.208Z,9.90
2023-04-16T17:11:43.918Z,10.43
2023-04-16T17:14:10.590Z,9.70
2023-04-16T17:16:37.427Z,9.82
2023-04-16T17:19:04.213Z,9.95
2023-04-16T17:21:34.846Z,9.63
2023-04-16T17:24:01.512Z,10.30
2023-04-16T17:26:28.209Z,9.68
2023-04-16T17:28:56.686Z,9.75
2023-04-16T17:31:24.996Z,10.00
2023-04-16T17:33:53.671Z,10.10
2023-04-16T17:36:22.843Z,11.13
2023-04-16T17:38:50.718Z,11.13
2023-04-16T17:41:17.535Z,10.30
2023-04-16T17:43:44.250Z,11.57
2023-04-16T17:46:11.760Z,11.27
2023-04-16T17:48:38.562Z,11.20
2023-04-16T17:51:12.064Z,11.00
2023-04-16T17:53:39.068Z,11.68
2023-04-16T17:56:05.778Z,11.25
2023-04-16T17:58:32.883Z,11.48
2023-04-16T18:00:59.608Z,11.43
2023-04-16T18:03:26.480Z,11.40
2023-04-16T18:05:53.351Z,11.95
2023-04-16T18:08:20.028Z,11.90
2023-04-16T18:10:46.726Z,11.60
2023-04-16T18:13:13.439Z,12.68
2023-04-16T18:15:40.423Z,11.70
2023-04-16T18:18:07.499Z,12.10
2023-04-16T18:20:34.309Z,12.25
2023-04-16T18:23:01.610Z,13.02
2023-04-16T18:25:34.460Z,12.68
2023-04-16T18:28:02.240Z,12.90
2023-04-16T18:30:29.185Z,13.35
2023-04-16T18:33:25.524Z,12.90
2023-04-16T18:35:42.920Z,13.23
2023-04-16T18:38:09.659Z,13.10
2023-04-16T18:40:37.076Z,14.02
2023-04-16T18:43:04.296Z,16.08
2023-04-16T18:45:31.135Z,17.95
2023-04-16T18:48:02.794Z,22.60
2023-04-16T18:50:29.978Z,20.50
2023-04-16T18:52:57.074Z,20.98
2023-04-16T18:55:23.805Z,24.70
2023-04-16T18:57:50.523Z,20.23
2023-04-16T19:00:17.456Z,19.35
2023-04-16T19:02:44.469Z,19.58
2023-04-16T19:05:11.406Z,20.77
2023-04-16T19:07:38.650Z,20.27
2023-04-16T19:10:08.716Z,19.95
2023-04-16T19:12:35.526Z,18.20
2023-04-16T19:15:02.250Z,16.58
2023-04-16T19:17:28.991Z,15.90
2023-04-16T19:19:59.385Z,13.75
2023-04-16T19:22:26.199Z,13.85
2023-04-16T19:24:56.986Z,13.63
2023-04-16T19:27:23.635Z,14.15
2023-04-16T19:29:50.324Z,14.07
2023-04-16T19:32:17.079Z,14.88
2023-04-16T19:34:43.838Z,14.43
2023-04-16T19:37:10.860Z,13.55
2023-04-16T19:39:37.665Z,13.70
2023-04-16T19:42:04.615Z,14.93
2023-04-16T19:44:32.300Z,17.48
2023-04-16T19:46:59.518Z,16.90
2023-04-16T19:49:34.350Z,17.90
2023-04-16T19:52:01.449Z,15.15
2023-04-16T19:54:28.760Z,14.30
2023-04-16T19:56:55.455Z,14.40
2023-04-16T19:59:22.123Z,15.98
2023-04-16T20:01:49.022Z,15.45
2023-04-16T20:04:16.037Z,16.60
2023-04-16T20:06:42.692Z,16.08
2023-04-16T20:09:09.616Z,13.73
2023-04-16T20:11:36.647Z,14.50
2023-04-16T20:14:03.362Z,16.83
2023-04-16T20:16:32.745Z,15.77
2023-04-16T20:19:03.617Z,17.27
2023-04-16T20:21:31.972Z,15.05
2023-04-16T20:24:01.866Z,17.02
2023-04-16T20:26:33.619Z,15.27
2023-04-16T20:29:00.889Z,16.08
2023-04-16T20:31:27.632Z,15.30
2023-04-16T20:33:54.568Z,16.95
2023-04-16T20:36:21.678Z,18.25
2023-04-16T20:38:51.110Z,19.08
2023-04-16T20:41:22.402Z,17.95
2023-04-16T20:43:52.933Z,18.20
2023-04-16T20:46:24.494Z,18.25
2023-04-16T20:48:51.908Z,18.60
2023-04-16T20:51:18.680Z,20.38
2023-04-16T20:53:45.523Z,18.85
2023-04-16T20:56:15.432Z,17.92
2023-04-16T20:58:42.773Z,19.15
2023-04-16T21:01:09.677Z,19.80
2023-04-16T21:03:37.164Z,24.02
2023-04-16T21:06:04.386Z,21.80
2023-04-16T21:08:31.226Z,20.80
2023-04-16T21:10:58.220Z,19.95
2023-04-16T21:13:25.014Z,19.15
2023-04-16T21:15:52.408Z,19.65
2023-04-16T21:18:19.082Z,18.63
2023-04-16T21:20:46.439Z,19.38
2023-04-16T21:23:13.167Z,20.60
2023-04-16T21:25:39.872Z,20.02
2023-04-16T21:28:06.707Z,18.75
2023-04-16T21:30:33.485Z,19.75
2023-04-16T21:33:00.168Z,20.00
2023-04-16T21:35:26.964Z,20.27
2023-04-16T21:37:53.695Z,21.08
2023-04-16T21:40:20.474Z,21.00
2023-04-16T21:42:47.130Z,19.42
2023-04-16T21:45:14.557Z,20.38
2023-04-16T21:47:41.252Z,20.50
2023-04-16T21:50:08.455Z,20.15
2023-04-16T21:52:40.210Z,20.65
2023-04-16T21:55:09.266Z,21.48
2023-04-16T21:57:35.953Z,22.00
2023-04-16T22:00:03.101Z,20.27
2023-04-16T22:02:31.325Z,21.27
2023-04-16T22:04:58.112Z,22.05
2023-04-16T22:07:27.241Z,22.35
2023-04-16T22:09:53.926Z,20.10
2023-04-16T22:12:20.559Z,21.75
2023-04-16T22:14:59.619Z,21.20
2023-04-16T22:17:28.968Z,23.25
2023-04-16T22:19:55.656Z,22.52
2023-04-16T22:22:22.375Z,22.48
2023-04-16T22:24:49.071Z,23.95
2023-04-16T22:27:15.858Z,22.52
2023-04-16T22:29:42.724Z,21.67
2023-04-16T22:32:09.390Z,25.08
2023-04-16T22:34:36.121Z,23.85
2023-04-16T22:37:03.188Z,32.95
2023-04-16T22:39:30.881Z,43.25
2023-04-16T22:41:57.574Z,26.17
2023-04-16T22:44:24.328Z,21.92
2023-04-16T22:46:51.231Z,27.77
2023-04-16T22:49:17.997Z,21.17
2023-04-16T22:51:44.840Z,22.00
2023-04-16T22:54:13.661Z,19.70
2023-04-16T22:56:40.841Z,21.60
2023-04-16T22:59:07.961Z,22.00
2023-04-16T23:01:35.328Z,22.85
2023-04-16T23:04:02.114Z,24.35
2023-04-16T23:06:28.884Z,22.52
2023-04-16T23:08:55.649Z,23.92
2023-04-16T23:11:22.431Z,24.45
2023-04-16T23:13:49.078Z,25.95
2023-04-16T23:16:15.982Z,24.67
2023-04-16T23:18:42.830Z,25.25
2023-04-16T23:21:09.496Z,25.25
2023-04-16T23:23:36.153Z,26.08
2023-04-16T23:26:02.857Z,26.77
2023-04-16T23:28:29.612Z,24.55
2023-04-16T23:30:56.311Z,26.40
2023-04-16T23:33:22.942Z,25.02
2023-04-16T23:35:49.568Z,22.20
2023-04-16T23:38:16.250Z,23.38
2023-04-16T23:40:42.921Z,23.17
2023-04-16T23:43:10.005Z,23.42
2023-04-16T23:45:36.632Z,23.75
2023-04-16T23:48:03.362Z,23.45
2023-04-16T23:50:30.023Z,25.00
2023-04-16T23:52:56.804Z,22.63
2023-04-16T23:55:23.519Z,21.15
2023-04-16T23:57:50.230Z,21.40
